CPA331 LFPG-LIRF
Flight info
| Callsign | CPA331 |
|---|---|
| Flight time | 1h 41m |
| Altitude | 41000 |
| Route | OKASI DCT OKEKO DCT MOU DCT MADIV DCT MOKIP DCT TUFTA DCT KOGAS DCT MEDAM DCT NITAM DCT MOGBO DCT ELB/N0482F400 DCT ELKAP |
| Aircraft | A35K/H-SDE2E3GHIJ1J3J4J5LM1ORWXY/LB1D1 |
Departure
| Time | 2026-05-06 09:30 |
|---|---|
| Airport | Charles de Gaulle International Airport (LFPG) |
Arrival
| Time | 2026-05-06 11:12 |
|---|---|
| Airport | Rome–Fiumicino Leonardo da Vinci International Airport (LIRF) |
| Time | Latitude | Longitude | Altitude | Speed | Heading |
|---|---|---|---|---|---|
| 2026-05-06 09:10 | 49.00487 | 2.55955 | 333 ft | 0 kts | 173° |
| 2026-05-06 09:13 | 49.00497 | 2.55953 | 367 ft | 4 kts | 173° |
| 2026-05-06 09:13 | 49.00524 | 2.55949 | 366 ft | 4 kts | 173° |
| 2026-05-06 09:14 | 49.00550 | 2.55944 | 366 ft | 4 kts | 189° |
| 2026-05-06 09:14 | 49.00567 | 2.55958 | 363 ft | 4 kts | 266° |
| 2026-05-06 09:14 | 49.00564 | 2.55998 | 363 ft | 4 kts | 275° |
| 2026-05-06 09:14 | 49.00564 | 2.56007 | 364 ft | 0 kts | 271° |
| 2026-05-06 09:16 | 49.00564 | 2.56002 | 363 ft | 2 kts | 274° |
| 2026-05-06 09:16 | 49.00569 | 2.55906 | 365 ft | 12 kts | 271° |
| 2026-05-06 09:16 | 49.00564 | 2.55766 | 369 ft | 15 kts | 266° |
| 2026-05-06 09:17 | 49.00556 | 2.55597 | 364 ft | 17 kts | 265° |
| 2026-05-06 09:17 | 49.00588 | 2.55420 | 369 ft | 17 kts | 322° |
| 2026-05-06 09:17 | 49.00697 | 2.55365 | 364 ft | 18 kts | 344° |
| 2026-05-06 09:17 | 49.00823 | 2.55311 | 367 ft | 20 kts | 343° |
| 2026-05-06 09:18 | 49.00964 | 2.55246 | 367 ft | 22 kts | 343° |
| 2026-05-06 09:18 | 49.01120 | 2.55177 | 367 ft | 24 kts | 344° |
| 2026-05-06 09:18 | 49.01289 | 2.55105 | 367 ft | 26 kts | 345° |
| 2026-05-06 09:18 | 49.01471 | 2.55040 | 364 ft | 27 kts | 350° |
| 2026-05-06 09:19 | 49.01664 | 2.55014 | 363 ft | 29 kts | 356° |
| 2026-05-06 09:19 | 49.01848 | 2.54935 | 367 ft | 28 kts | 314° |
| 2026-05-06 09:19 | 49.02005 | 2.54800 | 368 ft | 22 kts | 304° |
| 2026-05-06 09:19 | 49.02016 | 2.54606 | 368 ft | 19 kts | 266° |
| 2026-05-06 09:20 | 49.02004 | 2.54394 | 367 ft | 22 kts | 265° |
| 2026-05-06 09:20 | 49.01957 | 2.54165 | 368 ft | 24 kts | 227° |
| 2026-05-06 09:20 | 49.01890 | 2.53938 | 369 ft | 25 kts | 265° |
| 2026-05-06 09:20 | 49.01880 | 2.53756 | 362 ft | 27 kts | 265° |
| 2026-05-06 09:21 | 49.01857 | 2.53357 | 364 ft | 30 kts | 265° |
| 2026-05-06 09:21 | 49.01841 | 2.53030 | 364 ft | 32 kts | 264° |
| 2026-05-06 09:21 | 49.01823 | 2.52684 | 363 ft | 34 kts | 265° |
| 2026-05-06 09:21 | 49.01843 | 2.52378 | 369 ft | 26 kts | 313° |
| 2026-05-06 09:22 | 49.01882 | 2.52209 | 365 ft | 26 kts | 266° |
| 2026-05-06 09:22 | 49.01863 | 2.51923 | 367 ft | 28 kts | 265° |
| 2026-05-06 09:22 | 49.01848 | 2.51614 | 360 ft | 30 kts | 266° |
| 2026-05-06 09:22 | 49.01871 | 2.51302 | 369 ft | 31 kts | 311° |
| 2026-05-06 09:23 | 49.01936 | 2.51258 | 365 ft | 6 kts | 358° |
| 2026-05-06 09:23 | 49.01942 | 2.51258 | 364 ft | 0 kts | 2° |
| 2026-05-06 09:29 | 49.02005 | 2.51277 | 360 ft | 29 kts | 16° |
| 2026-05-06 09:29 | 49.02074 | 2.51498 | 368 ft | 17 kts | 84° |
| 2026-05-06 09:29 | 49.02075 | 2.51522 | 369 ft | 3 kts | 85° |
| 2026-05-06 09:29 | 49.02087 | 2.51738 | 361 ft | 57 kts | 84° |
| 2026-05-06 09:30 | 49.02139 | 2.52728 | 362 ft | 129 kts | 86° |
| 2026-05-06 09:30 | 49.02225 | 2.54415 | 447 ft | 185 kts | 84° |
| 2026-05-06 09:30 | 49.02298 | 2.56499 | 1071 ft | 201 kts | 82° |
| 2026-05-06 09:30 | 49.02423 | 2.58626 | 2112 ft | 207 kts | 80° |
| 2026-05-06 09:31 | 49.02562 | 2.60909 | 2749 ft | 223 kts | 80° |
| 2026-05-06 09:31 | 49.02712 | 2.63372 | 3386 ft | 243 kts | 81° |
| 2026-05-06 09:31 | 49.02860 | 2.66002 | 4172 ft | 255 kts | 82° |
| 2026-05-06 09:31 | 49.03006 | 2.68747 | 5002 ft | 264 kts | 82° |
| 2026-05-06 09:32 | 49.03147 | 2.71559 | 5972 ft | 267 kts | 82° |
| 2026-05-06 09:32 | 49.03287 | 2.74377 | 7111 ft | 269 kts | 83° |
| 2026-05-06 09:32 | 49.03438 | 2.77282 | 8018 ft | 281 kts | 84° |
| 2026-05-06 09:32 | 49.03594 | 2.80289 | 9049 ft | 287 kts | 85° |
| 2026-05-06 09:33 | 49.03751 | 2.83351 | 10108 ft | 293 kts | 86° |
| 2026-05-06 09:33 | 49.03912 | 2.86552 | 10686 ft | 316 kts | 86° |
| 2026-05-06 09:33 | 49.04077 | 2.89993 | 11391 ft | 332 kts | 87° |
| 2026-05-06 09:33 | 49.03911 | 2.93516 | 12531 ft | 336 kts | 103° |
| 2026-05-06 09:34 | 49.02994 | 2.96775 | 13508 ft | 347 kts | 126° |
| 2026-05-06 09:34 | 49.01216 | 2.99345 | 14439 ft | 351 kts | 149° |
| 2026-05-06 09:34 | 48.98957 | 3.00699 | 15397 ft | 350 kts | 171° |
| 2026-05-06 09:34 | 48.96534 | 3.00906 | 16438 ft | 350 kts | 184° |
| 2026-05-06 09:35 | 48.94159 | 3.00344 | 17368 ft | 352 kts | 195° |
| 2026-05-06 09:35 | 48.91875 | 2.98974 | 18294 ft | 355 kts | 208° |
| 2026-05-06 09:35 | 48.89713 | 2.97100 | 19068 ft | 361 kts | 211° |
| 2026-05-06 09:35 | 48.87540 | 2.95124 | 19783 ft | 367 kts | 211° |
| 2026-05-06 09:36 | 48.85326 | 2.93126 | 20479 ft | 374 kts | 211° |
| 2026-05-06 09:36 | 48.83070 | 2.91108 | 21232 ft | 379 kts | 211° |
| 2026-05-06 09:36 | 48.80772 | 2.89064 | 21965 ft | 386 kts | 211° |
| 2026-05-06 09:36 | 48.78439 | 2.86995 | 22687 ft | 391 kts | 210° |
| 2026-05-06 09:37 | 48.76074 | 2.84903 | 23442 ft | 396 kts | 210° |
| 2026-05-06 09:37 | 48.73681 | 2.82789 | 24035 ft | 401 kts | 210° |
| 2026-05-06 09:37 | 48.71249 | 2.80645 | 24602 ft | 407 kts | 210° |
| 2026-05-06 09:37 | 48.68797 | 2.78486 | 25317 ft | 409 kts | 210° |
| 2026-05-06 09:38 | 48.66324 | 2.76311 | 26016 ft | 414 kts | 209° |
| 2026-05-06 09:38 | 48.63817 | 2.74110 | 26593 ft | 419 kts | 208° |
| 2026-05-06 09:38 | 48.61282 | 2.71887 | 27262 ft | 421 kts | 209° |
| 2026-05-06 09:38 | 48.58756 | 2.69674 | 28042 ft | 421 kts | 208° |
| 2026-05-06 09:39 | 48.56201 | 2.67437 | 28527 ft | 428 kts | 208° |
| 2026-05-06 09:39 | 48.53610 | 2.65176 | 29059 ft | 432 kts | 208° |
| 2026-05-06 09:39 | 48.50912 | 2.63162 | 29669 ft | 433 kts | 200° |
| 2026-05-06 09:39 | 48.48024 | 2.61850 | 30140 ft | 436 kts | 189° |
| 2026-05-06 09:40 | 48.45010 | 2.61381 | 30548 ft | 437 kts | 178° |
| 2026-05-06 09:40 | 48.41961 | 2.61528 | 31035 ft | 439 kts | 176° |
| 2026-05-06 09:40 | 48.35851 | 2.62023 | 32076 ft | 441 kts | 176° |
| 2026-05-06 09:41 | 48.32777 | 2.62260 | 32497 ft | 444 kts | 177° |
| 2026-05-06 09:41 | 48.29687 | 2.62734 | 32896 ft | 447 kts | 170° |
| 2026-05-06 09:41 | 48.26671 | 2.63922 | 33267 ft | 451 kts | 160° |
| 2026-05-06 09:41 | 48.23827 | 2.65820 | 33663 ft | 454 kts | 153° |
| 2026-05-06 09:42 | 48.21007 | 2.67996 | 33974 ft | 458 kts | 153° |
| 2026-05-06 09:42 | 48.18164 | 2.70206 | 34274 ft | 462 kts | 153° |
| 2026-05-06 09:42 | 48.15307 | 2.72414 | 34607 ft | 464 kts | 153° |
| 2026-05-06 09:42 | 48.12430 | 2.74627 | 34922 ft | 466 kts | 153° |
| 2026-05-06 09:43 | 48.09533 | 2.76849 | 35264 ft | 467 kts | 154° |
| 2026-05-06 09:43 | 48.06628 | 2.79051 | 35551 ft | 470 kts | 155° |
| 2026-05-06 09:43 | 48.03647 | 2.81082 | 35757 ft | 473 kts | 158° |
| 2026-05-06 09:43 | 48.00597 | 2.82987 | 35930 ft | 478 kts | 159° |
| 2026-05-06 09:44 | 47.97503 | 2.84863 | 36224 ft | 480 kts | 159° |
| 2026-05-06 09:44 | 47.94412 | 2.86739 | 36596 ft | 481 kts | 159° |
| 2026-05-06 09:44 | 47.91306 | 2.88646 | 36857 ft | 483 kts | 158° |
| 2026-05-06 09:44 | 47.88207 | 2.90573 | 37204 ft | 483 kts | 158° |
| 2026-05-06 09:45 | 47.85112 | 2.92516 | 37530 ft | 483 kts | 158° |
| 2026-05-06 09:45 | 47.82013 | 2.94471 | 37845 ft | 483 kts | 158° |
| 2026-05-06 09:45 | 47.78918 | 2.96427 | 38217 ft | 482 kts | 158° |
| 2026-05-06 09:45 | 47.75842 | 2.98369 | 38587 ft | 480 kts | 158° |
| 2026-05-06 09:46 | 47.72762 | 3.00312 | 38746 ft | 482 kts | 158° |
| 2026-05-06 09:46 | 47.69706 | 3.02234 | 38911 ft | 484 kts | 158° |
| 2026-05-06 09:46 | 47.66567 | 3.04206 | 39130 ft | 484 kts | 159° |
| 2026-05-06 09:46 | 47.63507 | 3.06125 | 39354 ft | 484 kts | 159° |
| 2026-05-06 09:47 | 47.60405 | 3.08067 | 39570 ft | 484 kts | 159° |
| 2026-05-06 09:47 | 47.57307 | 3.10004 | 39797 ft | 484 kts | 159° |
| 2026-05-06 09:47 | 47.54202 | 3.11944 | 39994 ft | 484 kts | 159° |
| 2026-05-06 09:47 | 47.51099 | 3.13880 | 40170 ft | 484 kts | 159° |
| 2026-05-06 09:48 | 47.47991 | 3.15815 | 40363 ft | 485 kts | 159° |
| 2026-05-06 09:48 | 47.44887 | 3.17745 | 40556 ft | 485 kts | 159° |
| 2026-05-06 09:48 | 47.41774 | 3.19677 | 40747 ft | 485 kts | 159° |
| 2026-05-06 09:48 | 47.38656 | 3.21610 | 40838 ft | 486 kts | 159° |
| 2026-05-06 09:49 | 47.32419 | 3.25473 | 40841 ft | 485 kts | 159° |
| 2026-05-06 09:49 | 47.26193 | 3.29317 | 40846 ft | 486 kts | 159° |
| 2026-05-06 09:50 | 47.19959 | 3.33156 | 40865 ft | 485 kts | 159° |
| 2026-05-06 09:50 | 47.13729 | 3.36983 | 40853 ft | 485 kts | 159° |
| 2026-05-06 09:51 | 47.07499 | 3.40799 | 40875 ft | 485 kts | 159° |
| 2026-05-06 09:51 | 47.01269 | 3.44606 | 40875 ft | 485 kts | 159° |
| 2026-05-06 09:52 | 46.95033 | 3.48407 | 40875 ft | 485 kts | 159° |
| 2026-05-06 09:52 | 46.88798 | 3.52200 | 40866 ft | 485 kts | 159° |
| 2026-05-06 09:53 | 46.82604 | 3.55956 | 40863 ft | 485 kts | 160° |
| 2026-05-06 09:53 | 46.76564 | 3.60396 | 40865 ft | 489 kts | 147° |
| 2026-05-06 09:54 | 46.71611 | 3.67215 | 40870 ft | 495 kts | 128° |
| 2026-05-06 09:54 | 46.68475 | 3.76139 | 40871 ft | 501 kts | 108° |
| 2026-05-06 09:55 | 46.66680 | 3.85962 | 40873 ft | 503 kts | 105° |
| 2026-05-06 09:55 | 46.65063 | 3.95887 | 40876 ft | 504 kts | 105° |
| 2026-05-06 09:56 | 46.63415 | 4.05739 | 40870 ft | 503 kts | 106° |
| 2026-05-06 09:56 | 46.61703 | 4.15613 | 40881 ft | 503 kts | 107° |
| 2026-05-06 09:57 | 46.59974 | 4.25465 | 40874 ft | 503 kts | 107° |
| 2026-05-06 09:57 | 46.58234 | 4.35323 | 40879 ft | 503 kts | 107° |
| 2026-05-06 09:58 | 46.56490 | 4.45169 | 40869 ft | 503 kts | 107° |
| 2026-05-06 09:58 | 46.54739 | 4.55011 | 40879 ft | 503 kts | 107° |
| 2026-05-06 09:59 | 46.52979 | 4.64841 | 40881 ft | 503 kts | 107° |
| 2026-05-06 09:59 | 46.51212 | 4.74666 | 40883 ft | 503 kts | 107° |
| 2026-05-06 10:00 | 46.49436 | 4.84481 | 40876 ft | 503 kts | 107° |
| 2026-05-06 10:00 | 46.47652 | 4.94293 | 40886 ft | 503 kts | 107° |
| 2026-05-06 10:01 | 46.45859 | 5.04098 | 40883 ft | 503 kts | 107° |
| 2026-05-06 10:01 | 46.44062 | 5.13894 | 40889 ft | 503 kts | 107° |
| 2026-05-06 10:02 | 46.42257 | 5.23691 | 40878 ft | 503 kts | 108° |
| 2026-05-06 10:02 | 46.40437 | 5.33492 | 40898 ft | 504 kts | 108° |
| 2026-05-06 10:03 | 46.37870 | 5.42836 | 40901 ft | 496 kts | 124° |
| 2026-05-06 10:03 | 46.33790 | 5.50802 | 40905 ft | 492 kts | 133° |
| 2026-05-06 10:04 | 46.29350 | 5.58328 | 40903 ft | 492 kts | 134° |
| 2026-05-06 10:04 | 46.24864 | 5.65795 | 40907 ft | 491 kts | 134° |
| 2026-05-06 10:05 | 46.20406 | 5.73255 | 40908 ft | 491 kts | 134° |
| 2026-05-06 10:05 | 46.15960 | 5.80723 | 40908 ft | 490 kts | 134° |
| 2026-05-06 10:06 | 46.11509 | 5.88189 | 40906 ft | 490 kts | 134° |
| 2026-05-06 10:06 | 46.07055 | 5.95642 | 40928 ft | 490 kts | 134° |
| 2026-05-06 10:07 | 46.02598 | 6.03075 | 40936 ft | 490 kts | 134° |
| 2026-05-06 10:07 | 45.98896 | 6.09233 | 40934 ft | 490 kts | 135° |
| 2026-05-06 10:08 | 45.94441 | 6.16624 | 40945 ft | 489 kts | 135° |
| 2026-05-06 10:08 | 45.89977 | 6.24012 | 40944 ft | 489 kts | 135° |
| 2026-05-06 10:09 | 45.85511 | 6.31381 | 40903 ft | 490 kts | 135° |
| 2026-05-06 10:09 | 45.80912 | 6.38572 | 40922 ft | 486 kts | 142° |
| 2026-05-06 10:10 | 45.75609 | 6.44487 | 40913 ft | 483 kts | 148° |
| 2026-05-06 10:10 | 45.70134 | 6.50073 | 40900 ft | 483 kts | 149° |
| 2026-05-06 10:11 | 45.64636 | 6.55601 | 40900 ft | 483 kts | 149° |
| 2026-05-06 10:11 | 45.59145 | 6.61138 | 40891 ft | 483 kts | 148° |
| 2026-05-06 10:12 | 45.53669 | 6.66672 | 40886 ft | 482 kts | 149° |
| 2026-05-06 10:12 | 45.48208 | 6.72183 | 40887 ft | 481 kts | 149° |
| 2026-05-06 10:13 | 45.42785 | 6.77639 | 40890 ft | 480 kts | 149° |
| 2026-05-06 10:13 | 45.37321 | 6.83123 | 40850 ft | 480 kts | 149° |
| 2026-05-06 10:14 | 45.31854 | 6.88593 | 40868 ft | 480 kts | 149° |
| 2026-05-06 10:14 | 45.26466 | 6.94198 | 40856 ft | 484 kts | 143° |
| 2026-05-06 10:15 | 45.21515 | 7.00718 | 40862 ft | 486 kts | 141° |
| 2026-05-06 10:15 | 45.16658 | 7.07409 | 40871 ft | 487 kts | 140° |
| 2026-05-06 10:16 | 45.11836 | 7.14139 | 40878 ft | 488 kts | 137° |
| 2026-05-06 10:16 | 45.07621 | 7.21750 | 40883 ft | 493 kts | 130° |
| 2026-05-06 10:17 | 45.03661 | 7.29670 | 40882 ft | 494 kts | 129° |
| 2026-05-06 10:17 | 44.99726 | 7.37633 | 40842 ft | 493 kts | 129° |
| 2026-05-06 10:18 | 44.95267 | 7.44874 | 40833 ft | 487 kts | 139° |
| 2026-05-06 10:18 | 44.90493 | 7.51643 | 40830 ft | 486 kts | 140° |
| 2026-05-06 10:19 | 44.85672 | 7.58322 | 40831 ft | 486 kts | 140° |
| 2026-05-06 10:19 | 44.80885 | 7.64952 | 40823 ft | 486 kts | 140° |
| 2026-05-06 10:20 | 44.76069 | 7.71632 | 40826 ft | 486 kts | 140° |
| 2026-05-06 10:20 | 44.71253 | 7.78307 | 40813 ft | 486 kts | 140° |
| 2026-05-06 10:21 | 44.66433 | 7.84971 | 40827 ft | 486 kts | 140° |
| 2026-05-06 10:21 | 44.61609 | 7.91624 | 40824 ft | 486 kts | 140° |
| 2026-05-06 10:22 | 44.56782 | 7.98263 | 40808 ft | 486 kts | 141° |
| 2026-05-06 10:22 | 44.51955 | 8.04886 | 40829 ft | 486 kts | 141° |
| 2026-05-06 10:23 | 44.47111 | 8.11514 | 40830 ft | 486 kts | 141° |
| 2026-05-06 10:23 | 44.42268 | 8.18126 | 40818 ft | 486 kts | 141° |
| 2026-05-06 10:24 | 44.37428 | 8.24719 | 40825 ft | 486 kts | 141° |
| 2026-05-06 10:24 | 44.32575 | 8.31312 | 40823 ft | 486 kts | 141° |
| 2026-05-06 10:25 | 44.27729 | 8.37881 | 40841 ft | 485 kts | 141° |
| 2026-05-06 10:25 | 44.22882 | 8.44436 | 40846 ft | 485 kts | 141° |
| 2026-05-06 10:26 | 44.18031 | 8.50978 | 40862 ft | 485 kts | 141° |
| 2026-05-06 10:26 | 44.13175 | 8.57512 | 40865 ft | 485 kts | 141° |
| 2026-05-06 10:27 | 44.08317 | 8.64033 | 40855 ft | 485 kts | 141° |
| 2026-05-06 10:27 | 44.03451 | 8.70549 | 40875 ft | 486 kts | 141° |
| 2026-05-06 10:28 | 43.98575 | 8.77063 | 40873 ft | 486 kts | 141° |
| 2026-05-06 10:28 | 43.93732 | 8.83518 | 40881 ft | 486 kts | 141° |
| 2026-05-06 10:29 | 43.88852 | 8.90005 | 40881 ft | 486 kts | 141° |
| 2026-05-06 10:29 | 43.83963 | 8.96490 | 40891 ft | 486 kts | 142° |
| 2026-05-06 10:30 | 43.79075 | 9.02958 | 40892 ft | 486 kts | 142° |
| 2026-05-06 10:30 | 43.74180 | 9.09420 | 40878 ft | 486 kts | 142° |
| 2026-05-06 10:31 | 43.69276 | 9.15877 | 40899 ft | 487 kts | 142° |
| 2026-05-06 10:31 | 43.64403 | 9.22279 | 40894 ft | 487 kts | 142° |
| 2026-05-06 10:32 | 43.59456 | 9.28762 | 40903 ft | 487 kts | 142° |
| 2026-05-06 10:32 | 43.54562 | 9.35162 | 40903 ft | 487 kts | 142° |
| 2026-05-06 10:33 | 43.49639 | 9.41584 | 40911 ft | 487 kts | 142° |
| 2026-05-06 10:33 | 43.44714 | 9.47992 | 40901 ft | 487 kts | 142° |
| 2026-05-06 10:34 | 43.39780 | 9.54399 | 40916 ft | 488 kts | 142° |
| 2026-05-06 10:34 | 43.34842 | 9.60798 | 40916 ft | 488 kts | 142° |
| 2026-05-06 10:35 | 43.29895 | 9.67193 | 40919 ft | 488 kts | 142° |
| 2026-05-06 10:35 | 43.24949 | 9.73570 | 40924 ft | 488 kts | 142° |
| 2026-05-06 10:36 | 43.19993 | 9.79944 | 40708 ft | 488 kts | 142° |
| 2026-05-06 10:36 | 43.17519 | 9.83121 | 40463 ft | 488 kts | 142° |
| 2026-05-06 10:36 | 43.15044 | 9.86295 | 40196 ft | 487 kts | 142° |
| 2026-05-06 10:37 | 43.12574 | 9.89459 | 39948 ft | 486 kts | 142° |
| 2026-05-06 10:37 | 43.10113 | 9.92611 | 39397 ft | 484 kts | 142° |
| 2026-05-06 10:37 | 43.07655 | 9.95753 | 38681 ft | 485 kts | 143° |
| 2026-05-06 10:37 | 43.05194 | 9.98894 | 37920 ft | 483 kts | 143° |
| 2026-05-06 10:38 | 43.02750 | 10.02012 | 37274 ft | 478 kts | 143° |
| 2026-05-06 10:38 | 43.00354 | 10.05066 | 36672 ft | 476 kts | 143° |
| 2026-05-06 10:38 | 42.97944 | 10.08134 | 36011 ft | 473 kts | 143° |
| 2026-05-06 10:38 | 42.95511 | 10.11225 | 35363 ft | 471 kts | 143° |
| 2026-05-06 10:39 | 42.93148 | 10.14223 | 34717 ft | 469 kts | 143° |
| 2026-05-06 10:39 | 42.90757 | 10.17252 | 34025 ft | 469 kts | 143° |
| 2026-05-06 10:39 | 42.88362 | 10.20283 | 33208 ft | 469 kts | 143° |
| 2026-05-06 10:39 | 42.85971 | 10.23306 | 32432 ft | 468 kts | 143° |
| 2026-05-06 10:40 | 42.83590 | 10.26315 | 31655 ft | 467 kts | 143° |
| 2026-05-06 10:40 | 42.81208 | 10.29323 | 30865 ft | 467 kts | 143° |
| 2026-05-06 10:40 | 42.78825 | 10.32333 | 30172 ft | 466 kts | 143° |
| 2026-05-06 10:40 | 42.76651 | 10.35539 | 30014 ft | 458 kts | 135° |
| 2026-05-06 10:41 | 42.74889 | 10.39109 | 29888 ft | 451 kts | 125° |
| 2026-05-06 10:41 | 42.73619 | 10.42976 | 29760 ft | 446 kts | 115° |
| 2026-05-06 10:41 | 42.72882 | 10.47043 | 29629 ft | 441 kts | 104° |
| 2026-05-06 10:41 | 42.72603 | 10.51162 | 29430 ft | 434 kts | 98° |
| 2026-05-06 10:42 | 42.72451 | 10.55217 | 29240 ft | 424 kts | 98° |
| 2026-05-06 10:42 | 42.72304 | 10.59206 | 28741 ft | 422 kts | 98° |
| 2026-05-06 10:42 | 42.72000 | 10.63134 | 28319 ft | 413 kts | 108° |
| 2026-05-06 10:42 | 42.71026 | 10.66728 | 27937 ft | 398 kts | 125° |
| 2026-05-06 10:43 | 42.69632 | 10.69937 | 27534 ft | 393 kts | 128° |
| 2026-05-06 10:43 | 42.68183 | 10.73071 | 27154 ft | 391 kts | 129° |
| 2026-05-06 10:43 | 42.66740 | 10.76187 | 26767 ft | 389 kts | 128° |
| 2026-05-06 10:44 | 42.63905 | 10.82335 | 25986 ft | 384 kts | 128° |
| 2026-05-06 10:44 | 42.62497 | 10.85395 | 25609 ft | 381 kts | 128° |
| 2026-05-06 10:44 | 42.61097 | 10.88434 | 25227 ft | 379 kts | 128° |
| 2026-05-06 10:44 | 42.59704 | 10.91458 | 24833 ft | 377 kts | 128° |
| 2026-05-06 10:45 | 42.58316 | 10.94470 | 24447 ft | 374 kts | 128° |
| 2026-05-06 10:45 | 42.56940 | 10.97452 | 24063 ft | 372 kts | 128° |
| 2026-05-06 10:45 | 42.55569 | 11.00420 | 23669 ft | 370 kts | 128° |
| 2026-05-06 10:45 | 42.54208 | 11.03366 | 23267 ft | 368 kts | 128° |
| 2026-05-06 10:46 | 42.52852 | 11.06295 | 22855 ft | 366 kts | 128° |
| 2026-05-06 10:46 | 42.51506 | 11.09203 | 22480 ft | 364 kts | 128° |
| 2026-05-06 10:46 | 42.50161 | 11.12105 | 22099 ft | 362 kts | 128° |
| 2026-05-06 10:46 | 42.48825 | 11.14983 | 21727 ft | 360 kts | 128° |
| 2026-05-06 10:47 | 42.47498 | 11.17843 | 21354 ft | 358 kts | 128° |
| 2026-05-06 10:47 | 42.46167 | 11.20705 | 20951 ft | 359 kts | 129° |
| 2026-05-06 10:47 | 42.44855 | 11.23585 | 20558 ft | 361 kts | 126° |
| 2026-05-06 10:47 | 42.43928 | 11.26772 | 20166 ft | 368 kts | 108° |
| 2026-05-06 10:48 | 42.43475 | 11.30185 | 19748 ft | 368 kts | 103° |
| 2026-05-06 10:48 | 42.43113 | 11.33603 | 19346 ft | 365 kts | 102° |
| 2026-05-06 10:48 | 42.42752 | 11.36988 | 18949 ft | 362 kts | 102° |
| 2026-05-06 10:48 | 42.42390 | 11.40298 | 18553 ft | 359 kts | 102° |
| 2026-05-06 10:49 | 42.42022 | 11.43620 | 18187 ft | 354 kts | 102° |
| 2026-05-06 10:49 | 42.41661 | 11.46856 | 18038 ft | 342 kts | 103° |
| 2026-05-06 10:49 | 42.41309 | 11.49990 | 17872 ft | 333 kts | 103° |
| 2026-05-06 10:49 | 42.40954 | 11.53079 | 17494 ft | 331 kts | 103° |
| 2026-05-06 10:50 | 42.40311 | 11.56012 | 17142 ft | 320 kts | 122° |
| 2026-05-06 10:50 | 42.39005 | 11.58327 | 16841 ft | 303 kts | 146° |
| 2026-05-06 10:50 | 42.37192 | 11.59787 | 16647 ft | 307 kts | 164° |
| 2026-05-06 10:50 | 42.35186 | 11.60766 | 16545 ft | 303 kts | 167° |
| 2026-05-06 10:51 | 42.33227 | 11.61660 | 16349 ft | 293 kts | 167° |
| 2026-05-06 10:51 | 42.31311 | 11.62537 | 16008 ft | 288 kts | 167° |
| 2026-05-06 10:51 | 42.29429 | 11.63404 | 15761 ft | 283 kts | 167° |
| 2026-05-06 10:51 | 42.27571 | 11.64262 | 15511 ft | 281 kts | 167° |
| 2026-05-06 10:52 | 42.25724 | 11.65116 | 15243 ft | 279 kts | 167° |
| 2026-05-06 10:52 | 42.23879 | 11.65930 | 14825 ft | 278 kts | 169° |
| 2026-05-06 10:52 | 42.22037 | 11.66710 | 14515 ft | 277 kts | 169° |
| 2026-05-06 10:52 | 42.20200 | 11.67490 | 14275 ft | 276 kts | 169° |
| 2026-05-06 10:53 | 42.18367 | 11.68271 | 14036 ft | 277 kts | 168° |
| 2026-05-06 10:53 | 42.16527 | 11.69058 | 13781 ft | 277 kts | 168° |
| 2026-05-06 10:53 | 42.14692 | 11.69845 | 13507 ft | 276 kts | 168° |
| 2026-05-06 10:53 | 42.12865 | 11.70630 | 13267 ft | 275 kts | 168° |
| 2026-05-06 10:54 | 42.11044 | 11.71412 | 13013 ft | 274 kts | 168° |
| 2026-05-06 10:54 | 42.09244 | 11.72187 | 12830 ft | 267 kts | 168° |
| 2026-05-06 10:54 | 42.07538 | 11.73110 | 12619 ft | 267 kts | 156° |
| 2026-05-06 10:54 | 42.06183 | 11.74864 | 12362 ft | 280 kts | 126° |
| 2026-05-06 10:55 | 42.05653 | 11.77409 | 12058 ft | 290 kts | 92° |
| 2026-05-06 10:55 | 42.06046 | 11.80072 | 11776 ft | 293 kts | 73° |
| 2026-05-06 10:55 | 42.06699 | 11.82679 | 11510 ft | 294 kts | 71° |
| 2026-05-06 10:55 | 42.07466 | 11.85220 | 11230 ft | 293 kts | 59° |
| 2026-05-06 10:56 | 42.08854 | 11.87145 | 10979 ft | 285 kts | 25° |
| 2026-05-06 10:56 | 42.10693 | 11.87794 | 10883 ft | 271 kts | 353° |
| 2026-05-06 10:56 | 42.12500 | 11.87353 | 10799 ft | 262 kts | 336° |
| 2026-05-06 10:56 | 42.14234 | 11.86602 | 10710 ft | 262 kts | 335° |
| 2026-05-06 10:57 | 42.15966 | 11.85830 | 10634 ft | 263 kts | 335° |
| 2026-05-06 10:57 | 42.17699 | 11.85072 | 10550 ft | 261 kts | 335° |
| 2026-05-06 10:57 | 42.19427 | 11.84322 | 10470 ft | 260 kts | 335° |
| 2026-05-06 10:57 | 42.21147 | 11.83578 | 10370 ft | 259 kts | 335° |
| 2026-05-06 10:58 | 42.22283 | 11.83088 | 10303 ft | 259 kts | 335° |
| 2026-05-06 10:58 | 42.24002 | 11.82350 | 10228 ft | 259 kts | 335° |
| 2026-05-06 10:58 | 42.25715 | 11.81620 | 10148 ft | 258 kts | 335° |
| 2026-05-06 10:58 | 42.27986 | 11.80640 | 10025 ft | 259 kts | 335° |
| 2026-05-06 10:59 | 42.29747 | 11.80089 | 9935 ft | 266 kts | 350° |
| 2026-05-06 10:59 | 42.31587 | 11.80590 | 9857 ft | 279 kts | 24° |
| 2026-05-06 10:59 | 42.33002 | 11.82390 | 9749 ft | 285 kts | 59° |
| 2026-05-06 10:59 | 42.33534 | 11.84044 | 9692 ft | 286 kts | 73° |
| 2026-05-06 11:00 | 42.34104 | 11.86618 | 9590 ft | 286 kts | 75° |
| 2026-05-06 11:00 | 42.34791 | 11.90037 | 9462 ft | 281 kts | 81° |
| 2026-05-06 11:00 | 42.34830 | 11.91805 | 9402 ft | 276 kts | 103° |
| 2026-05-06 11:00 | 42.34069 | 11.94021 | 9298 ft | 251 kts | 140° |
| 2026-05-06 11:01 | 42.32664 | 11.95236 | 9249 ft | 236 kts | 167° |
| 2026-05-06 11:01 | 42.31107 | 11.95919 | 9158 ft | 235 kts | 171° |
| 2026-05-06 11:01 | 42.29539 | 11.96545 | 9078 ft | 234 kts | 170° |
| 2026-05-06 11:01 | 42.27977 | 11.97181 | 9000 ft | 235 kts | 169° |
| 2026-05-06 11:02 | 42.26415 | 11.97835 | 8908 ft | 235 kts | 169° |
| 2026-05-06 11:02 | 42.24883 | 11.98480 | 8607 ft | 233 kts | 169° |
| 2026-05-06 11:02 | 42.23332 | 11.99132 | 8228 ft | 234 kts | 169° |
| 2026-05-06 11:02 | 42.21778 | 11.99788 | 7857 ft | 234 kts | 168° |
| 2026-05-06 11:03 | 42.20233 | 12.00444 | 7550 ft | 231 kts | 168° |
| 2026-05-06 11:03 | 42.18706 | 12.01096 | 7246 ft | 229 kts | 167° |
| 2026-05-06 11:03 | 42.17192 | 12.01742 | 6957 ft | 226 kts | 167° |
| 2026-05-06 11:03 | 42.15701 | 12.02375 | 6677 ft | 223 kts | 167° |
| 2026-05-06 11:04 | 42.14226 | 12.03004 | 6400 ft | 221 kts | 167° |
| 2026-05-06 11:04 | 42.12768 | 12.03632 | 6145 ft | 217 kts | 166° |
| 2026-05-06 11:04 | 42.11460 | 12.04605 | 5918 ft | 217 kts | 145° |
| 2026-05-06 11:04 | 42.10380 | 12.06047 | 5625 ft | 219 kts | 139° |
| 2026-05-06 11:05 | 42.09371 | 12.07559 | 5371 ft | 215 kts | 138° |
| 2026-05-06 11:05 | 42.08374 | 12.09052 | 5100 ft | 213 kts | 138° |
| 2026-05-06 11:05 | 42.07382 | 12.10523 | 4839 ft | 211 kts | 139° |
| 2026-05-06 11:05 | 42.06409 | 12.11961 | 4592 ft | 206 kts | 137° |
| 2026-05-06 11:06 | 42.05441 | 12.13384 | 4230 ft | 206 kts | 137° |
| 2026-05-06 11:06 | 42.04473 | 12.14804 | 3926 ft | 204 kts | 137° |
| 2026-05-06 11:06 | 42.03522 | 12.16198 | 3663 ft | 201 kts | 138° |
| 2026-05-06 11:06 | 42.02590 | 12.17563 | 3452 ft | 193 kts | 137° |
| 2026-05-06 11:07 | 42.01650 | 12.18776 | 3429 ft | 182 kts | 149° |
| 2026-05-06 11:07 | 42.00525 | 12.19511 | 3257 ft | 179 kts | 164° |
| 2026-05-06 11:07 | 41.99347 | 12.20008 | 3065 ft | 176 kts | 166° |
| 2026-05-06 11:07 | 41.98179 | 12.20481 | 2995 ft | 175 kts | 166° |
| 2026-05-06 11:08 | 41.97016 | 12.20957 | 2969 ft | 174 kts | 166° |
| 2026-05-06 11:08 | 41.95864 | 12.21434 | 2964 ft | 169 kts | 166° |
| 2026-05-06 11:08 | 41.94800 | 12.21863 | 3016 ft | 152 kts | 166° |
| 2026-05-06 11:08 | 41.93822 | 12.22275 | 2886 ft | 143 kts | 165° |
| 2026-05-06 11:09 | 41.92905 | 12.22665 | 2639 ft | 137 kts | 165° |
| 2026-05-06 11:09 | 41.91963 | 12.23058 | 2151 ft | 146 kts | 164° |
| 2026-05-06 11:09 | 41.90944 | 12.23482 | 1459 ft | 163 kts | 163° |
| 2026-05-06 11:09 | 41.89865 | 12.23938 | 1045 ft | 159 kts | 163° |
| 2026-05-06 11:10 | 41.88865 | 12.24360 | 936 ft | 142 kts | 164° |
| 2026-05-06 11:10 | 41.87966 | 12.24734 | 776 ft | 131 kts | 162° |
| 2026-05-06 11:10 | 41.87113 | 12.25093 | 603 ft | 126 kts | 161° |
| 2026-05-06 11:10 | 41.86291 | 12.25440 | 412 ft | 122 kts | 161° |
| 2026-05-06 11:11 | 41.85480 | 12.25780 | 257 ft | 122 kts | 162° |
| 2026-05-06 11:11 | 41.84670 | 12.26130 | 107 ft | 123 kts | 161° |
| 2026-05-06 11:11 | 41.83863 | 12.26473 | 27 ft | 117 kts | 162° |
| 2026-05-06 11:11 | 41.83240 | 12.26723 | 20 ft | 57 kts | 163° |
| 2026-05-06 11:12 | 41.83016 | 12.26810 | 24 ft | 28 kts | 164° |
| 2026-05-06 11:12 | 41.82830 | 12.26864 | 29 ft | 26 kts | 175° |
| 2026-05-06 11:12 | 41.82654 | 12.26853 | 22 ft | 26 kts | 191° |
| 2026-05-06 11:12 | 41.82574 | 12.26833 | 23 ft | 0 kts | 193° |
| 2026-05-06 11:15 | 41.82537 | 12.26821 | 21 ft | 16 kts | 192° |
| 2026-05-06 11:16 | 41.82432 | 12.26795 | 19 ft | 16 kts | 187° |
| 2026-05-06 11:16 | 41.82324 | 12.26791 | 18 ft | 16 kts | 176° |
| 2026-05-06 11:16 | 41.82217 | 12.26814 | 17 ft | 16 kts | 166° |
| 2026-05-06 11:16 | 41.82114 | 12.26856 | 16 ft | 16 kts | 161° |
| 2026-05-06 11:17 | 41.82012 | 12.26906 | 20 ft | 16 kts | 160° |
| 2026-05-06 11:17 | 41.81932 | 12.26942 | 18 ft | 8 kts | 163° |
| 2026-05-06 11:17 | 41.81862 | 12.26950 | 18 ft | 16 kts | 186° |
| 2026-05-06 11:17 | 41.81784 | 12.26926 | 20 ft | 16 kts | 193° |
| 2026-05-06 11:18 | 41.81700 | 12.26909 | 26 ft | 8 kts | 174° |
| 2026-05-06 11:18 | 41.81599 | 12.26944 | 28 ft | 16 kts | 163° |
| 2026-05-06 11:18 | 41.81496 | 12.26987 | 25 ft | 16 kts | 162° |
| 2026-05-06 11:18 | 41.81393 | 12.27030 | 26 ft | 16 kts | 162° |
| 2026-05-06 11:19 | 41.81289 | 12.27073 | 25 ft | 16 kts | 162° |
| 2026-05-06 11:19 | 41.81186 | 12.27116 | 23 ft | 16 kts | 162° |
| 2026-05-06 11:19 | 41.81087 | 12.27158 | 20 ft | 8 kts | 162° |
| 2026-05-06 11:19 | 41.81004 | 12.27192 | 17 ft | 16 kts | 164° |
| 2026-05-06 11:20 | 41.80899 | 12.27217 | 15 ft | 14 kts | 180° |
| 2026-05-06 11:20 | 41.80814 | 12.27189 | 16 ft | 16 kts | 214° |
| 2026-05-06 11:20 | 41.80766 | 12.27099 | 16 ft | 16 kts | 247° |
| 2026-05-06 11:20 | 41.80727 | 12.26964 | 14 ft | 16 kts | 250° |
| 2026-05-06 11:21 | 41.80690 | 12.26828 | 16 ft | 16 kts | 250° |
| 2026-05-06 11:21 | 41.80652 | 12.26692 | 19 ft | 16 kts | 250° |
| 2026-05-06 11:21 | 41.80615 | 12.26556 | 21 ft | 16 kts | 250° |
| 2026-05-06 11:21 | 41.80578 | 12.26422 | 24 ft | 16 kts | 250° |
| 2026-05-06 11:22 | 41.80541 | 12.26287 | 23 ft | 16 kts | 250° |
| 2026-05-06 11:22 | 41.80503 | 12.26150 | 19 ft | 16 kts | 250° |
| 2026-05-06 11:22 | 41.80466 | 12.26015 | 21 ft | 16 kts | 250° |
| 2026-05-06 11:22 | 41.80428 | 12.25879 | 21 ft | 16 kts | 250° |
| 2026-05-06 11:23 | 41.80391 | 12.25743 | 20 ft | 16 kts | 250° |
| 2026-05-06 11:23 | 41.80353 | 12.25607 | 23 ft | 16 kts | 250° |
| 2026-05-06 11:23 | 41.80327 | 12.25513 | 24 ft | 12 kts | 248° |
| 2026-05-06 11:23 | 41.80279 | 12.25443 | 25 ft | 14 kts | 202° |
| 2026-05-06 11:24 | 41.80205 | 12.25409 | 26 ft | 15 kts | 199° |
| 2026-05-06 11:24 | 41.80140 | 12.25347 | 29 ft | 16 kts | 239° |
| 2026-05-06 11:24 | 41.80110 | 12.25241 | 26 ft | 16 kts | 252° |
| 2026-05-06 11:24 | 41.80097 | 12.25101 | 23 ft | 12 kts | 275° |
| 2026-05-06 11:25 | 41.80108 | 12.24993 | 26 ft | 16 kts | 277° |
| 2026-05-06 11:25 | 41.80105 | 12.24874 | 24 ft | 16 kts | 258° |
| 2026-05-06 11:25 | 41.80066 | 12.24799 | 20 ft | 9 kts | 193° |
| 2026-05-06 11:25 | 41.79988 | 12.24777 | 20 ft | 16 kts | 227° |
| 2026-05-06 11:26 | 41.79954 | 12.24649 | 22 ft | 9 kts | 257° |
| 2026-05-06 11:26 | 41.79926 | 12.24533 | 17 ft | 16 kts | 251° |
| 2026-05-06 11:26 | 41.79887 | 12.24436 | 18 ft | 15 kts | 208° |
| 2026-05-06 11:26 | 41.79805 | 12.24443 | 21 ft | 16 kts | 162° |
| 2026-05-06 11:27 | 41.79729 | 12.24479 | 19 ft | 16 kts | 160° |
| 2026-05-06 11:27 | 41.79637 | 12.24525 | 20 ft | 6 kts | 160° |
| 2026-05-06 11:27 | 41.79612 | 12.24562 | 22 ft | 3 kts | 94° |
| 2026-05-06 11:27 | 41.79615 | 12.24600 | 22 ft | 3 kts | 77° |
| 2026-05-06 11:28 | 41.79621 | 12.24631 | 22 ft | 3 kts | 72° |
| 2026-05-06 11:28 | 41.79627 | 12.24655 | 22 ft | 0 kts | 71° |